Ruffin, North Carolina
Current Conditions -  °F | °C
As of 9:53 PM on Saturday 22 Nov 2014 (Local Time) from KDAN Reporting Station
Clear Clear  
Wind Chill: 30°   Ceiling: Unl
Heat Index: 30°   Visibility: 10mi
Dew Point: 19°   Wind: 3mph
Humidity: 64%   Direction: 190°S
Pressure: 30.35"   Gusts: NA
Location:  36.45°N, 79.54°W
Report Text: KDAN 230253Z AUTO 19003KT 10SM CLR M01/M07 A3035 RMK AO2 SLP275 T10111072 50000
Loading
Personal Weather Stations






























Interactive Weather Map New forecast layout! Learn more

10-Day Weather Forecast

Advertisements
Track Severe Weather on mobile